PWSweather.com
Personal Weather Stations
Station Observations
DW6359
Southwest Cambria, Cambria, WI 53923

Southwest CambriaCambria, WI 53923

Lat: 43.541194, Lon: -89.11275

Elevation: 945

Station Type: Davis Vantage Pro2

http://home.centurytel.net/weathercambria/wxcambria.html

High Low Average
Temperature 33.7°F0.9°C 20.2°F-6.6°C 27.2°F-2.7°C
Dew Point 28.8°F-1.8°C 13.4°F-10.3°C 21.0°F-6.1°C
Winds 8.0 mph 12.9 kmh Calm Calm 1.0 mph ENE1.6 kmh ENE
Wind Gusts 11.0 mph17.7 kmh -- 1.0 mph1.6 kmh
Humidity 89% 67% 77%
Pressure 30.77 in1042.0 mb 30.35 in1027.8 mb -
Precipitation 0.00 in0.0 mm - -
Hour Temp Dew Point Humidity Winds Wind Gusts Pressure Precip Precip Rate Daily Precip Total
12:00 AM 21.1°F-6.1°C 15.0°F-9.4°C 77% Calm Calm -- 30.77 in1042.0 mb 0.00 in0.0 mm 0.00 in0.0 mm 0.00 in0.0 mm
12:05 AM 21.0°F-6.1°C 14.9°F-9.5°C 77% Calm Calm -- 30.77 in1042.0 mb 0.00 in0.0 mm 0.00 in0.0 mm 0.00 in0.0 mm
12:10 AM 21.1°F-6.1°C 15.0°F-9.4°C 77% Calm Calm -- 30.76 in1041.7 mb 0.00 in0.0 mm 0.00 in0.0 mm 0.00 in0.0 mm
12:15 AM 21.0°F-6.1°C 14.9°F-9.5°C 77% Calm Calm -- 30.76 in1041.7 mb 0.00 in0.0 mm 0.00 in0.0 mm 0.00 in0.0 mm
12:20 AM 21.0°F-6.1°C 14.9°F-9.5°C 77% Calm Calm -- 30.77 in1042.0 mb 0.00 in0.0 mm 0.00 in0.0 mm 0.00 in0.0 mm
12:25 AM 21.0°F-6.1°C 14.9°F-9.5°C 77% Calm Calm -- 30.76 in1041.7 mb 0.00 in0.0 mm 0.00 in0.0 mm 0.00 in0.0 mm
12:30 AM 20.9°F-6.2°C 15.1°F-9.4°C 78% Calm Calm -- 30.76 in1041.7 mb 0.00 in0.0 mm 0.00 in0.0 mm 0.00 in0.0 mm
12:35 AM 20.9°F-6.2°C 15.1°F-9.4°C 78% Calm Calm -- 30.76 in1041.7 mb 0.00 in0.0 mm 0.00 in0.0 mm 0.00 in0.0 mm
12:40 AM 20.8°F-6.2°C 15.0°F-9.4°C 78% Calm Calm -- 30.76 in1041.7 mb 0.00 in0.0 mm 0.00 in0.0 mm 0.00 in0.0 mm
12:45 AM 20.8°F-6.2°C 15.0°F-9.4°C 78% Calm Calm -- 30.76 in1041.7 mb 0.00 in0.0 mm 0.00 in0.0 mm 0.00 in0.0 mm
12:50 AM 20.7°F-6.3°C 15.2°F-9.3°C 79% Calm Calm -- 30.76 in1041.7 mb 0.00 in0.0 mm 0.00 in0.0 mm 0.00 in0.0 mm
12:55 AM 20.7°F-6.3°C 15.2°F-9.3°C 79% Calm Calm -- 30.76 in1041.7 mb 0.00 in0.0 mm 0.00 in0.0 mm 0.00 in0.0 mm
01:00 AM 20.7°F-6.3°C 15.2°F-9.3°C 79% Calm Calm -- 30.76 in1041.7 mb 0.00 in0.0 mm 0.00 in0.0 mm 0.00 in0.0 mm
01:05 AM 20.7°F-6.3°C 15.2°F-9.3°C 79% Calm Calm -- 30.75 in1041.3 mb 0.00 in0.0 mm 0.00 in0.0 mm 0.00 in0.0 mm
01:10 AM 20.7°F-6.3°C 15.2°F-9.3°C 79% Calm Calm -- 30.76 in1041.7 mb 0.00 in0.0 mm 0.00 in0.0 mm 0.00 in0.0 mm
01:15 AM 20.7°F-6.3°C 15.2°F-9.3°C 79% Calm Calm -- 30.77 in1042.0 mb 0.00 in0.0 mm 0.00 in0.0 mm 0.00 in0.0 mm
01:20 AM 20.7°F-6.3°C 15.2°F-9.3°C 79% Calm Calm -- 30.77 in1042.0 mb 0.00 in0.0 mm 0.00 in0.0 mm 0.00 in0.0 mm
01:25 AM 20.6°F-6.3°C 15.1°F-9.4°C 79% Calm Calm -- 30.76 in1041.7 mb 0.00 in0.0 mm 0.00 in0.0 mm 0.00 in0.0 mm
01:30 AM 20.6°F-6.3°C 15.1°F-9.4°C 79% Calm Calm -- 30.76 in1041.7 mb 0.00 in0.0 mm 0.00 in0.0 mm 0.00 in0.0 mm
01:35 AM 20.6°F-6.3°C 15.1°F-9.4°C 79% 1.0 mph NNE1.6 kmh NNE -- 30.75 in1041.3 mb 0.00 in0.0 mm 0.00 in0.0 mm 0.00 in0.0 mm
01:40 AM 20.5°F-6.4°C 15.0°F-9.4°C 79% Calm Calm 5.0 mph8.0 kmh 30.75 in1041.3 mb 0.00 in0.0 mm 0.00 in0.0 mm 0.00 in0.0 mm
01:45 AM 20.5°F-6.4°C 15.0°F-9.4°C 79% Calm Calm 5.0 mph8.0 kmh 30.76 in1041.7 mb 0.00 in0.0 mm 0.00 in0.0 mm 0.00 in0.0 mm
01:50 AM 20.4°F-6.4°C 14.9°F-9.5°C 79% Calm Calm -- 30.76 in1041.7 mb 0.00 in0.0 mm 0.00 in0.0 mm 0.00 in0.0 mm
01:55 AM 20.4°F-6.4°C 14.9°F-9.5°C 79% 2.0 mph NNE3.2 kmh NNE -- 30.75 in1041.3 mb 0.00 in0.0 mm 0.00 in0.0 mm 0.00 in0.0 mm
02:00 AM 20.3°F-6.5°C 14.8°F-9.6°C 79% Calm Calm -- 30.75 in1041.3 mb 0.00 in0.0 mm 0.00 in0.0 mm 0.00 in0.0 mm
02:05 AM 20.2°F-6.6°C 14.7°F-9.6°C 79% Calm Calm -- 30.75 in1041.3 mb 0.00 in0.0 mm 0.00 in0.0 mm 0.00 in0.0 mm
02:10 AM 20.2°F-6.6°C 14.7°F-9.6°C 79% Calm Calm -- 30.75 in1041.3 mb 0.00 in0.0 mm 0.00 in0.0 mm 0.00 in0.0 mm
02:15 AM 20.2°F-6.6°C 14.7°F-9.6°C 79% Calm Calm -- 30.75 in1041.3 mb 0.00 in0.0 mm 0.00 in0.0 mm 0.00 in0.0 mm
02:20 AM 20.2°F-6.6°C 15.0°F-9.4°C 80% Calm Calm -- 30.75 in1041.3 mb 0.00 in0.0 mm 0.00 in0.0 mm 0.00 in0.0 mm
02:25 AM 20.2°F-6.6°C 15.0°F-9.4°C 80% Calm Calm -- 30.75 in1041.3 mb 0.00 in0.0 mm 0.00 in0.0 mm 0.00 in0.0 mm
02:30 AM 20.2°F-6.6°C 15.0°F-9.4°C 80% Calm Calm -- 30.75 in1041.3 mb 0.00 in0.0 mm 0.00 in0.0 mm 0.00 in0.0 mm
02:35 AM 20.3°F-6.5°C 14.8°F-9.6°C 79% Calm Calm -- 30.75 in1041.3 mb 0.00 in0.0 mm 0.00 in0.0 mm 0.00 in0.0 mm
02:40 AM 20.3°F-6.5°C 14.8°F-9.6°C 79% Calm Calm -- 30.75 in1041.3 mb 0.00 in0.0 mm 0.00 in0.0 mm 0.00 in0.0 mm
02:45 AM 20.4°F-6.4°C 14.7°F-9.6°C 78% Calm Calm -- 30.75 in1041.3 mb 0.00 in0.0 mm 0.00 in0.0 mm 0.00 in0.0 mm
02:50 AM 20.5°F-6.4°C 14.8°F-9.6°C 78% Calm Calm -- 30.75 in1041.3 mb 0.00 in0.0 mm 0.00 in0.0 mm 0.00 in0.0 mm
02:55 AM 20.6°F-6.3°C 14.8°F-9.6°C 78% Calm Calm -- 30.75 in1041.3 mb 0.00 in0.0 mm 0.00 in0.0 mm 0.00 in0.0 mm
03:00 AM 20.6°F-6.3°C 14.8°F-9.6°C 78% Calm Calm -- 30.75 in1041.3 mb 0.00 in0.0 mm 0.00 in0.0 mm 0.00 in0.0 mm
03:05 AM 20.6°F-6.3°C 14.6°F-9.7°C 77% Calm Calm -- 30.75 in1041.3 mb 0.00 in0.0 mm 0.00 in0.0 mm 0.00 in0.0 mm
03:10 AM 20.6°F-6.3°C 14.6°F-9.7°C 77% Calm Calm -- 30.74 in1041.0 mb 0.00 in0.0 mm 0.00 in0.0 mm 0.00 in0.0 mm
03:15 AM 20.6°F-6.3°C 14.6°F-9.7°C 77% Calm Calm -- 30.74 in1041.0 mb 0.00 in0.0 mm 0.00 in0.0 mm 0.00 in0.0 mm
03:20 AM 20.6°F-6.3°C 14.6°F-9.7°C 77% Calm Calm 1.0 mph1.6 kmh 30.73 in1040.6 mb 0.00 in0.0 mm 0.00 in0.0 mm 0.00 in0.0 mm
03:25 AM 20.6°F-6.3°C 14.3°F-9.8°C 76% Calm Calm 1.0 mph1.6 kmh 30.73 in1040.6 mb 0.00 in0.0 mm 0.00 in0.0 mm 0.00 in0.0 mm
03:30 AM 20.6°F-6.3°C 14.3°F-9.8°C 76% Calm Calm -- 30.74 in1041.0 mb 0.00 in0.0 mm 0.00 in0.0 mm 0.00 in0.0 mm
03:35 AM 20.7°F-6.3°C 14.4°F-9.8°C 76% Calm Calm -- 30.74 in1041.0 mb 0.00 in0.0 mm 0.00 in0.0 mm 0.00 in0.0 mm
03:40 AM 20.8°F-6.2°C 14.5°F-9.7°C 76% Calm Calm -- 30.74 in1041.0 mb 0.00 in0.0 mm 0.00 in0.0 mm 0.00 in0.0 mm
03:45 AM 20.8°F-6.2°C 14.1°F-9.9°C 75% Calm Calm -- 30.74 in1041.0 mb 0.00 in0.0 mm 0.00 in0.0 mm 0.00 in0.0 mm
03:50 AM 20.8°F-6.2°C 14.1°F-9.9°C 75% Calm Calm -- 30.74 in1041.0 mb 0.00 in0.0 mm 0.00 in0.0 mm 0.00 in0.0 mm
03:55 AM 20.8°F-6.2°C 14.1°F-9.9°C 75% Calm Calm -- 30.74 in1041.0 mb 0.00 in0.0 mm 0.00 in0.0 mm 0.00 in0.0 mm
04:00 AM 20.9°F-6.2°C 14.5°F-9.7°C 76% Calm Calm -- 30.73 in1040.6 mb 0.00 in0.0 mm 0.00 in0.0 mm 0.00 in0.0 mm
04:05 AM 20.9°F-6.2°C 14.2°F-9.9°C 75% Calm Calm -- 30.73 in1040.6 mb 0.00 in0.0 mm 0.00 in0.0 mm 0.00 in0.0 mm
04:10 AM 20.9°F-6.2°C 13.9°F-10.1°C 74% Calm Calm 1.0 mph1.6 kmh 30.73 in1040.6 mb 0.00 in0.0 mm 0.00 in0.0 mm 0.00 in0.0 mm
04:15 AM 20.9°F-6.2°C 13.9°F-10.1°C 74% Calm Calm 1.0 mph1.6 kmh 30.73 in1040.6 mb 0.00 in0.0 mm 0.00 in0.0 mm 0.00 in0.0 mm
04:20 AM 21.0°F-6.1°C 14.0°F-10.0°C 74% Calm Calm -- 30.73 in1040.6 mb 0.00 in0.0 mm 0.00 in0.0 mm 0.00 in0.0 mm
04:25 AM 21.0°F-6.1°C 13.7°F-10.2°C 73% Calm Calm -- 30.73 in1040.6 mb 0.00 in0.0 mm 0.00 in0.0 mm 0.00 in0.0 mm
04:30 AM 21.0°F-6.1°C 13.7°F-10.2°C 73% Calm Calm -- 30.73 in1040.6 mb 0.00 in0.0 mm 0.00 in0.0 mm 0.00 in0.0 mm
04:35 AM 21.0°F-6.1°C 13.7°F-10.2°C 73% 1.0 mph NE1.6 kmh NE -- 30.73 in1040.6 mb 0.00 in0.0 mm 0.00 in0.0 mm 0.00 in0.0 mm
04:40 AM 21.0°F-6.1°C 13.4°F-10.3°C 72% Calm Calm -- 30.73 in1040.6 mb 0.00 in0.0 mm 0.00 in0.0 mm 0.00 in0.0 mm
04:45 AM 21.0°F-6.1°C 13.4°F-10.3°C 72% Calm Calm -- 30.73 in1040.6 mb 0.00 in0.0 mm 0.00 in0.0 mm 0.00 in0.0 mm
04:50 AM 21.0°F-6.1°C 13.4°F-10.3°C 72% Calm Calm -- 30.72 in1040.3 mb 0.00 in0.0 mm 0.00 in0.0 mm 0.00 in0.0 mm
04:55 AM 21.1°F-6.1°C 13.8°F-10.1°C 73% Calm Calm -- 30.71 in1040.0 mb 0.00 in0.0 mm 0.00 in0.0 mm 0.00 in0.0 mm
05:00 AM 21.1°F-6.1°C 13.8°F-10.1°C 73% Calm Calm 1.0 mph1.6 kmh 30.72 in1040.3 mb 0.00 in0.0 mm 0.00 in0.0 mm 0.00 in0.0 mm
05:05 AM 21.1°F-6.1°C 13.8°F-10.1°C 73% Calm Calm 1.0 mph1.6 kmh 30.71 in1040.0 mb 0.00 in0.0 mm 0.00 in0.0 mm 0.00 in0.0 mm
05:10 AM 21.1°F-6.1°C 13.8°F-10.1°C 73% Calm Calm -- 30.72 in1040.3 mb 0.00 in0.0 mm 0.00 in0.0 mm 0.00 in0.0 mm
05:15 AM 21.2°F-6.0°C 13.6°F-10.2°C 72% Calm Calm -- 30.72 in1040.3 mb 0.00 in0.0 mm 0.00 in0.0 mm 0.00 in0.0 mm
05:20 AM 21.2°F-6.0°C 13.9°F-10.1°C 73% Calm Calm -- 30.72 in1040.3 mb 0.00 in0.0 mm 0.00 in0.0 mm 0.00 in0.0 mm
05:25 AM 21.2°F-6.0°C 13.9°F-10.1°C 73% Calm Calm -- 30.73 in1040.6 mb 0.00 in0.0 mm 0.00 in0.0 mm 0.00 in0.0 mm
05:30 AM 21.2°F-6.0°C 13.9°F-10.1°C 73% Calm Calm -- 30.73 in1040.6 mb 0.00 in0.0 mm 0.00 in0.0 mm 0.00 in0.0 mm
05:35 AM 21.2°F-6.0°C 13.9°F-10.1°C 73% 2.0 mph NNE3.2 kmh NNE -- 30.72 in1040.3 mb 0.00 in0.0 mm 0.00 in0.0 mm 0.00 in0.0 mm
05:40 AM 21.2°F-6.0°C 14.2°F-9.9°C 74% Calm Calm -- 30.73 in1040.6 mb 0.00 in0.0 mm 0.00 in0.0 mm 0.00 in0.0 mm
05:45 AM 21.2°F-6.0°C 13.9°F-10.1°C 73% Calm Calm -- 30.73 in1040.6 mb 0.00 in0.0 mm 0.00 in0.0 mm 0.00 in0.0 mm
05:50 AM 21.3°F-5.9°C 14.3°F-9.8°C 74% Calm Calm 1.0 mph1.6 kmh 30.73 in1040.6 mb 0.00 in0.0 mm 0.00 in0.0 mm 0.00 in0.0 mm
05:55 AM 21.3°F-5.9°C 14.3°F-9.8°C 74% Calm Calm 1.0 mph1.6 kmh 30.73 in1040.6 mb 0.00 in0.0 mm 0.00 in0.0 mm 0.00 in0.0 mm
06:00 AM 21.3°F-5.9°C 14.3°F-9.8°C 74% Calm Calm -- 30.73 in1040.6 mb 0.00 in0.0 mm 0.00 in0.0 mm 0.00 in0.0 mm
06:05 AM 21.3°F-5.9°C 14.3°F-9.8°C 74% Calm Calm -- 30.73 in1040.6 mb 0.00 in0.0 mm 0.00 in0.0 mm 0.00 in0.0 mm
06:10 AM 21.4°F-5.9°C 14.7°F-9.6°C 75% 2.0 mph NNE3.2 kmh NNE -- 30.73 in1040.6 mb 0.00 in0.0 mm 0.00 in0.0 mm 0.00 in0.0 mm
06:15 AM 21.4°F-5.9°C 14.7°F-9.6°C 75% Calm Calm -- 30.73 in1040.6 mb 0.00 in0.0 mm 0.00 in0.0 mm 0.00 in0.0 mm
06:20 AM 21.4°F-5.9°C 14.7°F-9.6°C 75% Calm Calm -- 30.74 in1041.0 mb 0.00 in0.0 mm 0.00 in0.0 mm 0.00 in0.0 mm
06:25 AM 21.4°F-5.9°C 14.7°F-9.6°C 75% Calm Calm -- 30.75 in1041.3 mb 0.00 in0.0 mm 0.00 in0.0 mm 0.00 in0.0 mm
06:30 AM 21.4°F-5.9°C 14.7°F-9.6°C 75% Calm Calm -- 30.75 in1041.3 mb 0.00 in0.0 mm 0.00 in0.0 mm 0.00 in0.0 mm
06:35 AM 21.3°F-5.9°C 14.6°F-9.7°C 75% Calm Calm -- 30.74 in1041.0 mb 0.00 in0.0 mm 0.00 in0.0 mm 0.00 in0.0 mm
06:40 AM 21.3°F-5.9°C 14.6°F-9.7°C 75% Calm Calm -- 30.74 in1041.0 mb 0.00 in0.0 mm 0.00 in0.0 mm 0.00 in0.0 mm
06:45 AM 21.3°F-5.9°C 14.6°F-9.7°C 75% Calm Calm -- 30.75 in1041.3 mb 0.00 in0.0 mm 0.00 in0.0 mm 0.00 in0.0 mm
06:50 AM 21.3°F-5.9°C 14.6°F-9.7°C 75% Calm Calm -- 30.74 in1041.0 mb 0.00 in0.0 mm 0.00 in0.0 mm 0.00 in0.0 mm
06:55 AM 21.4°F-5.9°C 14.7°F-9.6°C 75% Calm Calm -- 30.75 in1041.3 mb 0.00 in0.0 mm 0.00 in0.0 mm 0.00 in0.0 mm
07:00 AM 21.4°F-5.9°C 14.7°F-9.6°C 75% Calm Calm -- 30.75 in1041.3 mb 0.00 in0.0 mm 0.00 in0.0 mm 0.00 in0.0 mm
07:05 AM 21.4°F-5.9°C 15.0°F-9.4°C 76% Calm Calm -- 30.75 in1041.3 mb 0.00 in0.0 mm 0.00 in0.0 mm 0.00 in0.0 mm
07:10 AM 21.4°F-5.9°C 15.0°F-9.4°C 76% Calm Calm -- 30.75 in1041.3 mb 0.00 in0.0 mm 0.00 in0.0 mm 0.00 in0.0 mm
07:15 AM 21.4°F-5.9°C 15.0°F-9.4°C 76% Calm Calm -- 30.75 in1041.3 mb 0.00 in0.0 mm 0.00 in0.0 mm 0.00 in0.0 mm
07:20 AM 21.5°F-5.8°C 15.1°F-9.4°C 76% Calm Calm -- 30.75 in1041.3 mb 0.00 in0.0 mm 0.00 in0.0 mm 0.00 in0.0 mm
07:25 AM 21.5°F-5.8°C 15.1°F-9.4°C 76% Calm Calm -- 30.75 in1041.3 mb 0.00 in0.0 mm 0.00 in0.0 mm 0.00 in0.0 mm
07:30 AM 21.5°F-5.8°C 15.1°F-9.4°C 76% Calm Calm -- 30.75 in1041.3 mb 0.00 in0.0 mm 0.00 in0.0 mm 0.00 in0.0 mm
07:35 AM 21.6°F-5.8°C 15.2°F-9.3°C 76% 1.0 mph NNE1.6 kmh NNE -- 30.74 in1041.0 mb 0.00 in0.0 mm 0.00 in0.0 mm 0.00 in0.0 mm
07:40 AM 21.6°F-5.8°C 15.2°F-9.3°C 76% Calm Calm -- 30.75 in1041.3 mb 0.00 in0.0 mm 0.00 in0.0 mm 0.00 in0.0 mm
07:45 AM 21.6°F-5.8°C 15.5°F-9.2°C 77% Calm Calm -- 30.75 in1041.3 mb 0.00 in0.0 mm 0.00 in0.0 mm 0.00 in0.0 mm
07:50 AM 21.6°F-5.8°C 15.5°F-9.2°C 77% 3.0 mph N4.8 kmh N -- 30.76 in1041.7 mb 0.00 in0.0 mm 0.00 in0.0 mm 0.00 in0.0 mm
07:55 AM 21.7°F-5.7°C 15.3°F-9.3°C 76% 3.0 mph N4.8 kmh N -- 30.76 in1041.7 mb 0.00 in0.0 mm 0.00 in0.0 mm 0.00 in0.0 mm
08:00 AM 21.7°F-5.7°C 15.6°F-9.1°C 77% Calm Calm -- 30.76 in1041.7 mb 0.00 in0.0 mm 0.00 in0.0 mm 0.00 in0.0 mm
08:05 AM 21.7°F-5.7°C 15.3°F-9.3°C 76% Calm Calm -- 30.75 in1041.3 mb 0.00 in0.0 mm 0.00 in0.0 mm 0.00 in0.0 mm
08:10 AM 21.8°F-5.7°C 15.4°F-9.2°C 76% 3.0 mph NNE4.8 kmh NNE -- 30.75 in1041.3 mb 0.00 in0.0 mm 0.00 in0.0 mm 0.00 in0.0 mm
08:15 AM 21.9°F-5.6°C 15.5°F-9.2°C 76% Calm Calm -- 30.75 in1041.3 mb 0.00 in0.0 mm 0.00 in0.0 mm 0.00 in0.0 mm
08:20 AM 21.9°F-5.6°C 15.5°F-9.2°C 76% Calm Calm 8.0 mph12.9 kmh 30.74 in1041.0 mb 0.00 in0.0 mm 0.00 in0.0 mm 0.00 in0.0 mm
08:25 AM 22.0°F-5.6°C 15.6°F-9.1°C 76% 5.0 mph NE8.0 kmh NE 8.0 mph12.9 kmh 30.75 in1041.3 mb 0.00 in0.0 mm 0.00 in0.0 mm 0.00 in0.0 mm
08:30 AM 22.0°F-5.6°C 15.9°F-8.9°C 77% 1.0 mph NE1.6 kmh NE -- 30.75 in1041.3 mb 0.00 in0.0 mm 0.00 in0.0 mm 0.00 in0.0 mm
08:35 AM 22.0°F-5.6°C 15.9°F-8.9°C 77% 4.0 mph ENE6.4 kmh ENE -- 30.75 in1041.3 mb 0.00 in0.0 mm 0.00 in0.0 mm 0.00 in0.0 mm
08:40 AM 22.1°F-5.5°C 16.0°F-8.9°C 77% 6.0 mph NE9.7 kmh NE -- 30.75 in1041.3 mb 0.00 in0.0 mm 0.00 in0.0 mm 0.00 in0.0 mm
08:45 AM 22.2°F-5.4°C 16.4°F-8.7°C 78% 3.0 mph NNE4.8 kmh NNE -- 30.75 in1041.3 mb 0.00 in0.0 mm 0.00 in0.0 mm 0.00 in0.0 mm
08:50 AM 22.3°F-5.4°C 16.5°F-8.6°C 78% 2.0 mph NNE3.2 kmh NNE -- 30.75 in1041.3 mb 0.00 in0.0 mm 0.00 in0.0 mm 0.00 in0.0 mm
08:55 AM 22.3°F-5.4°C 16.5°F-8.6°C 78% 5.0 mph NE8.0 kmh NE -- 30.75 in1041.3 mb 0.00 in0.0 mm 0.00 in0.0 mm 0.00 in0.0 mm
09:00 AM 22.4°F-5.3°C 16.6°F-8.6°C 78% 2.0 mph NE3.2 kmh NE -- 30.75 in1041.3 mb 0.00 in0.0 mm 0.00 in0.0 mm 0.00 in0.0 mm
09:05 AM 22.5°F-5.3°C 16.7°F-8.5°C 78% Calm Calm -- 30.75 in1041.3 mb 0.00 in0.0 mm 0.00 in0.0 mm 0.00 in0.0 mm
09:10 AM 22.5°F-5.3°C 16.7°F-8.5°C 78% Calm Calm 9.0 mph14.5 kmh 30.75 in1041.3 mb 0.00 in0.0 mm 0.00 in0.0 mm 0.00 in0.0 mm
09:15 AM 22.6°F-5.2°C 16.8°F-8.4°C 78% Calm Calm 9.0 mph14.5 kmh 30.74 in1041.0 mb 0.00 in0.0 mm 0.00 in0.0 mm 0.00 in0.0 mm
09:20 AM 22.7°F-5.2°C 16.9°F-8.4°C 78% 4.0 mph ENE6.4 kmh ENE -- 30.73 in1040.6 mb 0.00 in0.0 mm 0.00 in0.0 mm 0.00 in0.0 mm
09:25 AM 22.7°F-5.2°C 16.9°F-8.4°C 78% 2.0 mph ENE3.2 kmh ENE -- 30.73 in1040.6 mb 0.00 in0.0 mm 0.00 in0.0 mm 0.00 in0.0 mm
09:30 AM 22.8°F-5.1°C 17.0°F-8.3°C 78% Calm Calm -- 30.73 in1040.6 mb 0.00 in0.0 mm 0.00 in0.0 mm 0.00 in0.0 mm
09:35 AM 23.0°F-5.0°C 17.2°F-8.2°C 78% Calm Calm -- 30.73 in1040.6 mb 0.00 in0.0 mm 0.00 in0.0 mm 0.00 in0.0 mm
09:40 AM 23.0°F-5.0°C 17.2°F-8.2°C 78% 1.0 mph NE1.6 kmh NE -- 30.73 in1040.6 mb 0.00 in0.0 mm 0.00 in0.0 mm 0.00 in0.0 mm
09:45 AM 23.2°F-4.9°C 17.4°F-8.1°C 78% 1.0 mph E1.6 kmh E -- 30.74 in1041.0 mb 0.00 in0.0 mm 0.00 in0.0 mm 0.00 in0.0 mm
09:50 AM 23.3°F-4.8°C 17.8°F-7.9°C 79% Calm Calm -- 30.75 in1041.3 mb 0.00 in0.0 mm 0.00 in0.0 mm 0.00 in0.0 mm
09:55 AM 23.6°F-4.7°C 18.1°F-7.7°C 79% Calm Calm -- 30.75 in1041.3 mb 0.00 in0.0 mm 0.00 in0.0 mm 0.00 in0.0 mm
10:00 AM 23.9°F-4.5°C 18.4°F-7.6°C 79% Calm Calm 3.0 mph4.8 kmh 30.75 in1041.3 mb 0.00 in0.0 mm 0.00 in0.0 mm 0.00 in0.0 mm
10:05 AM 24.0°F-4.4°C 18.2°F-7.7°C 78% 5.0 mph NE8.0 kmh NE 3.0 mph4.8 kmh 30.75 in1041.3 mb 0.00 in0.0 mm 0.00 in0.0 mm 0.00 in0.0 mm
10:10 AM 24.0°F-4.4°C 18.2°F-7.7°C 78% Calm Calm -- 30.75 in1041.3 mb 0.00 in0.0 mm 0.00 in0.0 mm 0.00 in0.0 mm
10:15 AM 24.2°F-4.3°C 18.6°F-7.4°C 79% 3.0 mph NE4.8 kmh NE -- 30.75 in1041.3 mb 0.00 in0.0 mm 0.00 in0.0 mm 0.00 in0.0 mm
10:20 AM 24.3°F-4.3°C 18.7°F-7.4°C 79% 4.0 mph NE6.4 kmh NE -- 30.75 in1041.3 mb 0.00 in0.0 mm 0.00 in0.0 mm 0.00 in0.0 mm
10:25 AM 24.5°F-4.2°C 18.6°F-7.4°C 78% 3.0 mph NNE4.8 kmh NNE -- 30.76 in1041.7 mb 0.00 in0.0 mm 0.00 in0.0 mm 0.00 in0.0 mm
10:30 AM 24.6°F-4.1°C 18.7°F-7.4°C 78% 4.0 mph NE6.4 kmh NE -- 30.76 in1041.7 mb 0.00 in0.0 mm 0.00 in0.0 mm 0.00 in0.0 mm
10:35 AM 24.6°F-4.1°C 19.0°F-7.2°C 79% Calm Calm -- 30.75 in1041.3 mb 0.00 in0.0 mm 0.00 in0.0 mm 0.00 in0.0 mm
10:40 AM 24.9°F-3.9°C 19.3°F-7.1°C 79% Calm Calm -- 30.75 in1041.3 mb 0.00 in0.0 mm 0.00 in0.0 mm 0.00 in0.0 mm
10:45 AM 25.2°F-3.8°C 19.6°F-6.9°C 79% 3.0 mph ENE4.8 kmh ENE -- 30.74 in1041.0 mb 0.00 in0.0 mm 0.00 in0.0 mm 0.00 in0.0 mm
10:50 AM 25.4°F-3.7°C 19.8°F-6.8°C 79% 3.0 mph E4.8 kmh E 8.0 mph12.9 kmh 30.74 in1041.0 mb 0.00 in0.0 mm 0.00 in0.0 mm 0.00 in0.0 mm
10:55 AM 25.6°F-3.6°C 20.0°F-6.7°C 79% 5.0 mph NE8.0 kmh NE 8.0 mph12.9 kmh 30.74 in1041.0 mb 0.00 in0.0 mm 0.00 in0.0 mm 0.00 in0.0 mm
11:00 AM 25.7°F-3.5°C 20.1°F-6.6°C 79% Calm Calm -- 30.74 in1041.0 mb 0.00 in0.0 mm 0.00 in0.0 mm 0.00 in0.0 mm
11:05 AM 25.8°F-3.4°C 20.2°F-6.6°C 79% 5.0 mph NE8.0 kmh NE -- 30.74 in1041.0 mb 0.00 in0.0 mm 0.00 in0.0 mm 0.00 in0.0 mm
11:10 AM 25.8°F-3.4°C 20.2°F-6.6°C 79% Calm Calm -- 30.73 in1040.6 mb 0.00 in0.0 mm 0.00 in0.0 mm 0.00 in0.0 mm
11:15 AM 26.2°F-3.2°C 20.6°F-6.3°C 79% Calm Calm -- 30.73 in1040.6 mb 0.00 in0.0 mm 0.00 in0.0 mm 0.00 in0.0 mm
11:20 AM 26.4°F-3.1°C 20.8°F-6.2°C 79% 2.0 mph NE3.2 kmh NE -- 30.73 in1040.6 mb 0.00 in0.0 mm 0.00 in0.0 mm 0.00 in0.0 mm
11:25 AM 26.5°F-3.1°C 20.9°F-6.2°C 79% 3.0 mph NNE4.8 kmh NNE -- 30.73 in1040.6 mb 0.00 in0.0 mm 0.00 in0.0 mm 0.00 in0.0 mm
11:30 AM 26.7°F-2.9°C 21.1°F-6.1°C 79% 3.0 mph NNE4.8 kmh NNE -- 30.73 in1040.6 mb 0.00 in0.0 mm 0.00 in0.0 mm 0.00 in0.0 mm
11:35 AM 27.0°F-2.8°C 21.4°F-5.9°C 79% 3.0 mph NE4.8 kmh NE -- 30.73 in1040.6 mb 0.00 in0.0 mm 0.00 in0.0 mm 0.00 in0.0 mm
11:40 AM 27.1°F-2.7°C 21.5°F-5.8°C 79% 1.0 mph NE1.6 kmh NE 7.0 mph11.3 kmh 30.73 in1040.6 mb 0.00 in0.0 mm 0.00 in0.0 mm 0.00 in0.0 mm
11:45 AM 27.4°F-2.6°C 21.5°F-5.8°C 78% 2.0 mph E3.2 kmh E 7.0 mph11.3 kmh 30.72 in1040.3 mb 0.00 in0.0 mm 0.00 in0.0 mm 0.00 in0.0 mm
11:50 AM 27.6°F-2.4°C 21.7°F-5.7°C 78% 1.0 mph E1.6 kmh E -- 30.72 in1040.3 mb 0.00 in0.0 mm 0.00 in0.0 mm 0.00 in0.0 mm
11:55 AM 27.8°F-2.3°C 21.8°F-5.7°C 78% Calm Calm -- 30.72 in1040.3 mb 0.00 in0.0 mm 0.00 in0.0 mm 0.00 in0.0 mm
12:00 PM 28.0°F-2.2°C 22.0°F-5.6°C 78% 8.0 mph NE12.9 kmh NE -- 30.71 in1040.0 mb 0.00 in0.0 mm 0.00 in0.0 mm 0.00 in0.0 mm
12:05 PM 28.0°F-2.2°C 21.7°F-5.7°C 77% 5.0 mph ENE8.0 kmh ENE -- 30.71 in1040.0 mb 0.00 in0.0 mm 0.00 in0.0 mm 0.00 in0.0 mm
12:10 PM 28.0°F-2.2°C 21.7°F-5.7°C 77% 3.0 mph ESE4.8 kmh ESE -- 30.71 in1040.0 mb 0.00 in0.0 mm 0.00 in0.0 mm 0.00 in0.0 mm
12:15 PM 28.2°F-2.1°C 21.9°F-5.6°C 77% 3.0 mph ENE4.8 kmh ENE -- 30.71 in1040.0 mb 0.00 in0.0 mm 0.00 in0.0 mm 0.00 in0.0 mm
12:20 PM 28.4°F-2.0°C 22.1°F-5.5°C 77% Calm Calm -- 30.71 in1040.0 mb 0.00 in0.0 mm 0.00 in0.0 mm 0.00 in0.0 mm
12:25 PM 28.5°F-1.9°C 22.2°F-5.4°C 77% 2.0 mph E3.2 kmh E -- 30.71 in1040.0 mb 0.00 in0.0 mm 0.00 in0.0 mm 0.00 in0.0 mm
12:30 PM 28.5°F-1.9°C 22.2°F-5.4°C 77% 5.0 mph NE8.0 kmh NE 6.0 mph9.7 kmh 30.71 in1040.0 mb 0.00 in0.0 mm 0.00 in0.0 mm 0.00 in0.0 mm
12:35 PM 28.6°F-1.9°C 22.3°F-5.4°C 77% Calm Calm 6.0 mph9.7 kmh 30.70 in1039.6 mb 0.00 in0.0 mm 0.00 in0.0 mm 0.00 in0.0 mm
12:40 PM 28.6°F-1.9°C 22.3°F-5.4°C 77% Calm Calm -- 30.70 in1039.6 mb 0.00 in0.0 mm 0.00 in0.0 mm 0.00 in0.0 mm
12:45 PM 28.8°F-1.8°C 22.5°F-5.3°C 77% 2.0 mph E3.2 kmh E -- 30.70 in1039.6 mb 0.00 in0.0 mm 0.00 in0.0 mm 0.00 in0.0 mm
12:50 PM 28.8°F-1.8°C 22.5°F-5.3°C 77% 2.0 mph E3.2 kmh E -- 30.69 in1039.3 mb 0.00 in0.0 mm 0.00 in0.0 mm 0.00 in0.0 mm
12:55 PM 28.9°F-1.7°C 22.6°F-5.2°C 77% Calm Calm -- 30.68 in1038.9 mb 0.00 in0.0 mm 0.00 in0.0 mm 0.00 in0.0 mm
01:00 PM 29.1°F-1.6°C 23.1°F-4.9°C 78% 4.0 mph ENE6.4 kmh ENE -- 30.69 in1039.3 mb 0.00 in0.0 mm 0.00 in0.0 mm 0.00 in0.0 mm
01:05 PM 29.2°F-1.6°C 23.2°F-4.9°C 78% Calm Calm -- 30.68 in1038.9 mb 0.00 in0.0 mm 0.00 in0.0 mm 0.00 in0.0 mm
01:10 PM 29.5°F-1.4°C 23.2°F-4.9°C 77% 5.0 mph NE8.0 kmh NE -- 30.68 in1038.9 mb 0.00 in0.0 mm 0.00 in0.0 mm 0.00 in0.0 mm
01:15 PM 29.6°F-1.3°C 23.3°F-4.8°C 77% Calm Calm -- 30.68 in1038.9 mb 0.00 in0.0 mm 0.00 in0.0 mm 0.00 in0.0 mm
01:20 PM 29.9°F-1.2°C 23.6°F-4.7°C 77% Calm Calm 6.0 mph9.7 kmh 30.67 in1038.6 mb 0.00 in0.0 mm 0.00 in0.0 mm 0.00 in0.0 mm
01:25 PM 30.0°F-1.1°C 23.7°F-4.6°C 77% Calm Calm 6.0 mph9.7 kmh 30.67 in1038.6 mb 0.00 in0.0 mm 0.00 in0.0 mm 0.00 in0.0 mm
01:30 PM 30.1°F-1.1°C 23.8°F-4.6°C 77% Calm Calm -- 30.66 in1038.3 mb 0.00 in0.0 mm 0.00 in0.0 mm 0.00 in0.0 mm
01:35 PM 30.2°F-1.0°C 23.9°F-4.5°C 77% Calm Calm -- 30.66 in1038.3 mb 0.00 in0.0 mm 0.00 in0.0 mm 0.00 in0.0 mm
01:40 PM 30.4°F-0.9°C 24.1°F-4.4°C 77% Calm Calm -- 30.66 in1038.3 mb 0.00 in0.0 mm 0.00 in0.0 mm 0.00 in0.0 mm
01:45 PM 30.7°F-0.7°C 24.4°F-4.2°C 77% 1.0 mph NE1.6 kmh NE -- 30.65 in1037.9 mb 0.00 in0.0 mm 0.00 in0.0 mm 0.00 in0.0 mm
01:50 PM 30.9°F-0.6°C 23.9°F-4.5°C 75% Calm Calm -- 30.65 in1037.9 mb 0.00 in0.0 mm 0.00 in0.0 mm 0.00 in0.0 mm
01:55 PM 31.0°F-0.6°C 24.0°F-4.4°C 75% Calm Calm -- 30.65 in1037.9 mb 0.00 in0.0 mm 0.00 in0.0 mm 0.00 in0.0 mm
02:00 PM 31.2°F-0.4°C 23.9°F-4.5°C 74% 2.0 mph SE3.2 kmh SE -- 30.65 in1037.9 mb 0.00 in0.0 mm 0.00 in0.0 mm 0.00 in0.0 mm
02:05 PM 31.3°F-0.4°C 23.7°F-4.6°C 73% 3.0 mph NNE4.8 kmh NNE -- 30.64 in1037.6 mb 0.00 in0.0 mm 0.00 in0.0 mm 0.00 in0.0 mm
02:10 PM 31.5°F-0.3°C 23.9°F-4.5°C 73% 3.0 mph E4.8 kmh E 6.0 mph9.7 kmh 30.63 in1037.3 mb 0.00 in0.0 mm 0.00 in0.0 mm 0.00 in0.0 mm
02:15 PM 31.7°F-0.2°C 23.7°F-4.6°C 72% 2.0 mph ESE3.2 kmh ESE 6.0 mph9.7 kmh 30.63 in1037.3 mb 0.00 in0.0 mm 0.00 in0.0 mm 0.00 in0.0 mm
02:20 PM 32.0°F0.0°C 23.7°F-4.6°C 71% 3.0 mph E4.8 kmh E -- 30.64 in1037.6 mb 0.00 in0.0 mm 0.00 in0.0 mm 0.00 in0.0 mm
02:25 PM 32.1°F0.1°C 23.8°F-4.6°C 71% 2.0 mph E3.2 kmh E -- 30.64 in1037.6 mb 0.00 in0.0 mm 0.00 in0.0 mm 0.00 in0.0 mm
02:30 PM 32.4°F0.2°C 23.7°F-4.6°C 70% 5.0 mph ENE8.0 kmh ENE -- 30.64 in1037.6 mb 0.00 in0.0 mm 0.00 in0.0 mm 0.00 in0.0 mm
02:35 PM 32.7°F0.4°C 24.4°F-4.2°C 71% 1.0 mph SE1.6 kmh SE -- 30.63 in1037.3 mb 0.00 in0.0 mm 0.00 in0.0 mm 0.00 in0.0 mm
02:40 PM 33.2°F0.7°C 24.8°F-4.0°C 71% 3.0 mph E4.8 kmh E -- 30.62 in1036.9 mb 0.00 in0.0 mm 0.00 in0.0 mm 0.00 in0.0 mm
02:45 PM 33.3°F0.7°C 24.2°F-4.3°C 69% 5.0 mph ENE8.0 kmh ENE -- 30.62 in1036.9 mb 0.00 in0.0 mm 0.00 in0.0 mm 0.00 in0.0 mm
02:50 PM 33.1°F0.6°C 24.1°F-4.4°C 69% 4.0 mph ENE6.4 kmh ENE -- 30.61 in1036.6 mb 0.00 in0.0 mm 0.00 in0.0 mm 0.00 in0.0 mm
02:55 PM 33.1°F0.6°C 24.4°F-4.2°C 70% 3.0 mph ESE4.8 kmh ESE -- 30.61 in1036.6 mb 0.00 in0.0 mm 0.00 in0.0 mm 0.00 in0.0 mm
03:01 PM 33.0°F0.6°C 24.0°F-4.4°C 69% 3.0 mph E4.8 kmh E 9.0 mph14.5 kmh 30.60 in1036.2 mb 0.00 in0.0 mm 0.00 in0.0 mm 0.00 in0.0 mm
03:05 PM 33.1°F0.6°C 24.4°F-4.2°C 70% 5.0 mph E8.0 kmh E 9.0 mph14.5 kmh 30.60 in1036.2 mb 0.00 in0.0 mm 0.00 in0.0 mm 0.00 in0.0 mm
03:10 PM 33.2°F0.7°C 24.2°F-4.3°C 69% 5.0 mph E8.0 kmh E -- 30.59 in1035.9 mb 0.00 in0.0 mm 0.00 in0.0 mm 0.00 in0.0 mm
03:15 PM 33.2°F0.7°C 23.8°F-4.6°C 68% 3.0 mph E4.8 kmh E -- 30.58 in1035.6 mb 0.00 in0.0 mm 0.00 in0.0 mm 0.00 in0.0 mm
03:20 PM 33.3°F0.7°C 23.9°F-4.5°C 68% 5.0 mph E8.0 kmh E -- 30.58 in1035.6 mb 0.00 in0.0 mm 0.00 in0.0 mm 0.00 in0.0 mm
03:25 PM 33.4°F0.8°C 24.0°F-4.4°C 68% 4.0 mph ESE6.4 kmh ESE -- 30.58 in1035.6 mb 0.00 in0.0 mm 0.00 in0.0 mm 0.00 in0.0 mm
03:30 PM 33.4°F0.8°C 23.6°F-4.7°C 67% 4.0 mph SE6.4 kmh SE -- 30.59 in1035.9 mb 0.00 in0.0 mm 0.00 in0.0 mm 0.00 in0.0 mm
03:35 PM 33.3°F0.7°C 23.9°F-4.5°C 68% 1.0 mph SE1.6 kmh SE -- 30.59 in1035.9 mb 0.00 in0.0 mm 0.00 in0.0 mm 0.00 in0.0 mm
03:40 PM 33.4°F0.8°C 24.0°F-4.4°C 68% 4.0 mph E6.4 kmh E -- 30.59 in1035.9 mb 0.00 in0.0 mm 0.00 in0.0 mm 0.00 in0.0 mm
03:45 PM 33.4°F0.8°C 24.0°F-4.4°C 68% 2.0 mph SE3.2 kmh SE -- 30.59 in1035.9 mb 0.00 in0.0 mm 0.00 in0.0 mm 0.00 in0.0 mm
03:50 PM 33.3°F0.7°C 23.9°F-4.5°C 68% 6.0 mph E9.7 kmh E 11.0 mph17.7 kmh 30.58 in1035.6 mb 0.00 in0.0 mm 0.00 in0.0 mm 0.00 in0.0 mm
03:55 PM 33.4°F0.8°C 23.6°F-4.7°C 67% 1.0 mph ENE1.6 kmh ENE 11.0 mph17.7 kmh 30.58 in1035.6 mb 0.00 in0.0 mm 0.00 in0.0 mm 0.00 in0.0 mm
04:00 PM 33.4°F0.8°C 23.6°F-4.7°C 67% 3.0 mph ENE4.8 kmh ENE -- 30.59 in1035.9 mb 0.00 in0.0 mm 0.00 in0.0 mm 0.00 in0.0 mm
04:05 PM 33.4°F0.8°C 24.0°F-4.4°C 68% Calm Calm -- 30.59 in1035.9 mb 0.00 in0.0 mm 0.00 in0.0 mm 0.00 in0.0 mm
04:10 PM 33.6°F0.9°C 24.5°F-4.2°C 69% Calm Calm -- 30.59 in1035.9 mb 0.00 in0.0 mm 0.00 in0.0 mm 0.00 in0.0 mm
04:15 PM 33.7°F0.9°C 24.6°F-4.1°C 69% 1.0 mph ENE1.6 kmh ENE -- 30.60 in1036.2 mb 0.00 in0.0 mm 0.00 in0.0 mm 0.00 in0.0 mm
04:20 PM 33.6°F0.9°C 24.2°F-4.3°C 68% Calm Calm -- 30.60 in1036.2 mb 0.00 in0.0 mm 0.00 in0.0 mm 0.00 in0.0 mm
04:25 PM 33.5°F0.8°C 24.1°F-4.4°C 68% Calm Calm -- 30.59 in1035.9 mb 0.00 in0.0 mm 0.00 in0.0 mm 0.00 in0.0 mm
04:30 PM 33.5°F0.8°C 24.4°F-4.2°C 69% Calm Calm -- 30.59 in1035.9 mb 0.00 in0.0 mm 0.00 in0.0 mm 0.00 in0.0 mm
04:35 PM 33.5°F0.8°C 24.8°F-4.0°C 70% Calm Calm -- 30.60 in1036.2 mb 0.00 in0.0 mm 0.00 in0.0 mm 0.00 in0.0 mm
04:40 PM 33.5°F0.8°C 24.4°F-4.2°C 69% 1.0 mph ENE1.6 kmh ENE 5.0 mph8.0 kmh 30.60 in1036.2 mb 0.00 in0.0 mm 0.00 in0.0 mm 0.00 in0.0 mm
04:45 PM 33.5°F0.8°C 24.4°F-4.2°C 69% 1.0 mph NE1.6 kmh NE 5.0 mph8.0 kmh 30.61 in1036.6 mb 0.00 in0.0 mm 0.00 in0.0 mm 0.00 in0.0 mm
04:50 PM 33.4°F0.8°C 24.3°F-4.3°C 69% Calm Calm -- 30.61 in1036.6 mb 0.00 in0.0 mm 0.00 in0.0 mm 0.00 in0.0 mm
04:55 PM 33.4°F0.8°C 24.7°F-4.1°C 70% Calm Calm -- 30.60 in1036.2 mb 0.00 in0.0 mm 0.00 in0.0 mm 0.00 in0.0 mm
05:00 PM 33.4°F0.8°C 24.3°F-4.3°C 69% Calm Calm -- 30.60 in1036.2 mb 0.00 in0.0 mm 0.00 in0.0 mm 0.00 in0.0 mm
05:05 PM 33.3°F0.7°C 24.2°F-4.3°C 69% 1.0 mph NE1.6 kmh NE -- 30.59 in1035.9 mb 0.00 in0.0 mm 0.00 in0.0 mm 0.00 in0.0 mm
05:10 PM 33.3°F0.7°C 24.6°F-4.1°C 70% Calm Calm -- 30.58 in1035.6 mb 0.00 in0.0 mm 0.00 in0.0 mm 0.00 in0.0 mm
05:15 PM 33.3°F0.7°C 24.2°F-4.3°C 69% 2.0 mph NE3.2 kmh NE -- 30.58 in1035.6 mb 0.00 in0.0 mm 0.00 in0.0 mm 0.00 in0.0 mm
05:20 PM 33.2°F0.7°C 24.2°F-4.3°C 69% 4.0 mph NE6.4 kmh NE -- 30.58 in1035.6 mb 0.00 in0.0 mm 0.00 in0.0 mm 0.00 in0.0 mm
05:25 PM 33.2°F0.7°C 24.2°F-4.3°C 69% Calm Calm -- 30.58 in1035.6 mb 0.00 in0.0 mm 0.00 in0.0 mm 0.00 in0.0 mm
05:30 PM 33.2°F0.7°C 24.2°F-4.3°C 69% Calm Calm 4.0 mph6.4 kmh 30.58 in1035.6 mb 0.00 in0.0 mm 0.00 in0.0 mm 0.00 in0.0 mm
05:35 PM 33.2°F0.7°C 24.2°F-4.3°C 69% Calm Calm 4.0 mph6.4 kmh 30.58 in1035.6 mb 0.00 in0.0 mm 0.00 in0.0 mm 0.00 in0.0 mm
05:40 PM 33.1°F0.6°C 24.4°F-4.2°C 70% Calm Calm -- 30.57 in1035.2 mb 0.00 in0.0 mm 0.00 in0.0 mm 0.00 in0.0 mm
05:45 PM 33.1°F0.6°C 24.4°F-4.2°C 70% Calm Calm -- 30.56 in1034.9 mb 0.00 in0.0 mm 0.00 in0.0 mm 0.00 in0.0 mm
05:50 PM 33.1°F0.6°C 24.4°F-4.2°C 70% Calm Calm -- 30.56 in1034.9 mb 0.00 in0.0 mm 0.00 in0.0 mm 0.00 in0.0 mm
05:55 PM 33.0°F0.6°C 24.3°F-4.3°C 70% Calm Calm -- 30.56 in1034.9 mb 0.00 in0.0 mm 0.00 in0.0 mm 0.00 in0.0 mm
06:00 PM 32.9°F0.5°C 24.2°F-4.3°C 70% Calm Calm -- 30.56 in1034.9 mb 0.00 in0.0 mm 0.00 in0.0 mm 0.00 in0.0 mm
06:05 PM 32.9°F0.5°C 24.2°F-4.3°C 70% Calm Calm -- 30.56 in1034.9 mb 0.00 in0.0 mm 0.00 in0.0 mm 0.00 in0.0 mm
06:10 PM 32.8°F0.4°C 24.1°F-4.4°C 70% Calm Calm -- 30.55 in1034.5 mb 0.00 in0.0 mm 0.00 in0.0 mm 0.00 in0.0 mm
06:15 PM 32.8°F0.4°C 24.1°F-4.4°C 70% 1.0 mph NE1.6 kmh NE -- 30.56 in1034.9 mb 0.00 in0.0 mm 0.00 in0.0 mm 0.00 in0.0 mm
06:20 PM 32.8°F0.4°C 24.4°F-4.2°C 71% 4.0 mph ESE6.4 kmh ESE 6.0 mph9.7 kmh 30.56 in1034.9 mb 0.00 in0.0 mm 0.00 in0.0 mm 0.00 in0.0 mm
06:25 PM 32.7°F0.4°C 24.4°F-4.2°C 71% Calm Calm 6.0 mph9.7 kmh 30.56 in1034.9 mb 0.00 in0.0 mm 0.00 in0.0 mm 0.00 in0.0 mm
06:30 PM 32.7°F0.4°C 24.4°F-4.2°C 71% 3.0 mph NE4.8 kmh NE -- 30.56 in1034.9 mb 0.00 in0.0 mm 0.00 in0.0 mm 0.00 in0.0 mm
06:35 PM 32.7°F0.4°C 24.4°F-4.2°C 71% 1.0 mph E1.6 kmh E -- 30.57 in1035.2 mb 0.00 in0.0 mm 0.00 in0.0 mm 0.00 in0.0 mm
06:40 PM 32.7°F0.4°C 24.7°F-4.1°C 72% Calm Calm -- 30.56 in1034.9 mb 0.00 in0.0 mm 0.00 in0.0 mm 0.00 in0.0 mm
06:45 PM 32.6°F0.3°C 24.6°F-4.1°C 72% 2.0 mph E3.2 kmh E -- 30.55 in1034.5 mb 0.00 in0.0 mm 0.00 in0.0 mm 0.00 in0.0 mm
06:50 PM 32.5°F0.3°C 24.8°F-4.0°C 73% 2.0 mph NE3.2 kmh NE -- 30.55 in1034.5 mb 0.00 in0.0 mm 0.00 in0.0 mm 0.00 in0.0 mm
06:55 PM 32.4°F0.2°C 24.7°F-4.1°C 73% 5.0 mph E8.0 kmh E -- 30.55 in1034.5 mb 0.00 in0.0 mm 0.00 in0.0 mm 0.00 in0.0 mm
07:00 PM 32.4°F0.2°C 25.1°F-3.8°C 74% 2.0 mph ESE3.2 kmh ESE -- 30.55 in1034.5 mb 0.00 in0.0 mm 0.00 in0.0 mm 0.00 in0.0 mm
07:05 PM 32.4°F0.2°C 25.4°F-3.7°C 75% Calm Calm -- 30.55 in1034.5 mb 0.00 in0.0 mm 0.00 in0.0 mm 0.00 in0.0 mm
07:10 PM 32.3°F0.2°C 25.3°F-3.7°C 75% Calm Calm 3.0 mph4.8 kmh 30.55 in1034.5 mb 0.00 in0.0 mm 0.00 in0.0 mm 0.00 in0.0 mm
07:15 PM 32.3°F0.2°C 25.6°F-3.6°C 76% Calm Calm 3.0 mph4.8 kmh 30.55 in1034.5 mb 0.00 in0.0 mm 0.00 in0.0 mm 0.00 in0.0 mm
07:20 PM 32.2°F0.1°C 25.5°F-3.6°C 76% 3.0 mph ENE4.8 kmh ENE -- 30.55 in1034.5 mb 0.00 in0.0 mm 0.00 in0.0 mm 0.00 in0.0 mm
07:25 PM 32.1°F0.1°C 25.4°F-3.7°C 76% 4.0 mph ESE6.4 kmh ESE -- 30.55 in1034.5 mb 0.00 in0.0 mm 0.00 in0.0 mm 0.00 in0.0 mm
07:30 PM 32.0°F0.0°C 25.3°F-3.7°C 76% 4.0 mph ESE6.4 kmh ESE -- 30.54 in1034.2 mb 0.00 in0.0 mm 0.00 in0.0 mm 0.00 in0.0 mm
07:35 PM 31.9°F-0.1°C 25.5°F-3.6°C 77% 2.0 mph E3.2 kmh E -- 30.54 in1034.2 mb 0.00 in0.0 mm 0.00 in0.0 mm 0.00 in0.0 mm
07:40 PM 31.9°F-0.1°C 25.5°F-3.6°C 77% 2.0 mph E3.2 kmh E -- 30.54 in1034.2 mb 0.00 in0.0 mm 0.00 in0.0 mm 0.00 in0.0 mm
07:45 PM 31.8°F-0.1°C 25.7°F-3.5°C 78% 3.0 mph E4.8 kmh E -- 30.54 in1034.2 mb 0.00 in0.0 mm 0.00 in0.0 mm 0.00 in0.0 mm
07:50 PM 31.7°F-0.2°C 25.6°F-3.6°C 78% 2.0 mph E3.2 kmh E -- 30.53 in1033.9 mb 0.00 in0.0 mm 0.00 in0.0 mm 0.00 in0.0 mm
07:55 PM 31.6°F-0.2°C 25.8°F-3.4°C 79% 2.0 mph ESE3.2 kmh ESE -- 30.53 in1033.9 mb 0.00 in0.0 mm 0.00 in0.0 mm 0.00 in0.0 mm
08:00 PM 31.6°F-0.2°C 26.2°F-3.2°C 80% 2.0 mph ENE3.2 kmh ENE 7.0 mph11.3 kmh 30.53 in1033.9 mb 0.00 in0.0 mm 0.00 in0.0 mm 0.00 in0.0 mm
08:05 PM 31.5°F-0.3°C 26.1°F-3.3°C 80% 1.0 mph E1.6 kmh E 7.0 mph11.3 kmh 30.53 in1033.9 mb 0.00 in0.0 mm 0.00 in0.0 mm 0.00 in0.0 mm
08:10 PM 31.4°F-0.3°C 26.3°F-3.2°C 81% Calm Calm -- 30.52 in1033.5 mb 0.00 in0.0 mm 0.00 in0.0 mm 0.00 in0.0 mm
08:15 PM 31.4°F-0.3°C 26.3°F-3.2°C 81% 2.0 mph ENE3.2 kmh ENE -- 30.51 in1033.2 mb 0.00 in0.0 mm 0.00 in0.0 mm 0.00 in0.0 mm
08:20 PM 31.3°F-0.4°C 26.5°F-3.1°C 82% 1.0 mph ESE1.6 kmh ESE -- 30.51 in1033.2 mb 0.00 in0.0 mm 0.00 in0.0 mm 0.00 in0.0 mm
08:25 PM 31.2°F-0.4°C 26.4°F-3.1°C 82% 2.0 mph E3.2 kmh E -- 30.51 in1033.2 mb 0.00 in0.0 mm 0.00 in0.0 mm 0.00 in0.0 mm
08:30 PM 31.1°F-0.5°C 26.6°F-3.0°C 83% 3.0 mph E4.8 kmh E -- 30.50 in1032.8 mb 0.00 in0.0 mm 0.00 in0.0 mm 0.00 in0.0 mm
08:35 PM 31.1°F-0.5°C 26.8°F-2.9°C 84% 3.0 mph E4.8 kmh E -- 30.50 in1032.8 mb 0.00 in0.0 mm 0.00 in0.0 mm 0.00 in0.0 mm
08:40 PM 30.9°F-0.6°C 26.9°F-2.8°C 85% 4.0 mph ENE6.4 kmh ENE -- 30.50 in1032.8 mb 0.00 in0.0 mm 0.00 in0.0 mm 0.00 in0.0 mm
08:45 PM 30.7°F-0.7°C 27.0°F-2.8°C 86% 3.0 mph ENE4.8 kmh ENE -- 30.50 in1032.8 mb 0.00 in0.0 mm 0.00 in0.0 mm 0.00 in0.0 mm
08:50 PM 30.7°F-0.7°C 27.0°F-2.8°C 86% 4.0 mph ESE6.4 kmh ESE 7.0 mph11.3 kmh 30.50 in1032.8 mb 0.00 in0.0 mm 0.00 in0.0 mm 0.00 in0.0 mm
08:55 PM 30.7°F-0.7°C 27.3°F-2.6°C 87% 3.0 mph E4.8 kmh E 7.0 mph11.3 kmh 30.50 in1032.8 mb 0.00 in0.0 mm 0.00 in0.0 mm 0.00 in0.0 mm
09:00 PM 30.6°F-0.8°C 27.2°F-2.7°C 87% Calm Calm -- 30.50 in1032.8 mb 0.00 in0.0 mm 0.00 in0.0 mm 0.00 in0.0 mm
09:05 PM 30.6°F-0.8°C 27.2°F-2.7°C 87% Calm Calm -- 30.51 in1033.2 mb 0.00 in0.0 mm 0.00 in0.0 mm 0.00 in0.0 mm
09:10 PM 30.6°F-0.8°C 27.5°F-2.5°C 88% Calm Calm -- 30.50 in1032.8 mb 0.00 in0.0 mm 0.00 in0.0 mm 0.00 in0.0 mm
09:15 PM 30.5°F-0.8°C 27.4°F-2.6°C 88% Calm Calm -- 30.49 in1032.5 mb 0.00 in0.0 mm 0.00 in0.0 mm 0.00 in0.0 mm
09:20 PM 30.5°F-0.8°C 27.4°F-2.6°C 88% Calm Calm -- 30.49 in1032.5 mb 0.00 in0.0 mm 0.00 in0.0 mm 0.00 in0.0 mm
09:25 PM 30.5°F-0.8°C 27.4°F-2.6°C 88% 1.0 mph E1.6 kmh E -- 30.49 in1032.5 mb 0.00 in0.0 mm 0.00 in0.0 mm 0.00 in0.0 mm
09:30 PM 30.5°F-0.8°C 27.4°F-2.6°C 88% Calm Calm -- 30.49 in1032.5 mb 0.00 in0.0 mm 0.00 in0.0 mm 0.00 in0.0 mm
09:35 PM 30.5°F-0.8°C 27.4°F-2.6°C 88% 4.0 mph E6.4 kmh E -- 30.49 in1032.5 mb 0.00 in0.0 mm 0.00 in0.0 mm 0.00 in0.0 mm
09:40 PM 30.4°F-0.9°C 27.3°F-2.6°C 88% Calm Calm 5.0 mph8.0 kmh 30.48 in1032.2 mb 0.00 in0.0 mm 0.00 in0.0 mm 0.00 in0.0 mm
09:45 PM 30.5°F-0.8°C 27.4°F-2.6°C 88% Calm Calm 5.0 mph8.0 kmh 30.48 in1032.2 mb 0.00 in0.0 mm 0.00 in0.0 mm 0.00 in0.0 mm
09:50 PM 30.5°F-0.8°C 27.4°F-2.6°C 88% 2.0 mph E3.2 kmh E -- 30.48 in1032.2 mb 0.00 in0.0 mm 0.00 in0.0 mm 0.00 in0.0 mm
09:55 PM 30.5°F-0.8°C 27.4°F-2.6°C 88% 1.0 mph SE1.6 kmh SE -- 30.48 in1032.2 mb 0.00 in0.0 mm 0.00 in0.0 mm 0.00 in0.0 mm
10:00 PM 30.5°F-0.8°C 27.4°F-2.6°C 88% Calm Calm -- 30.47 in1031.8 mb 0.00 in0.0 mm 0.00 in0.0 mm 0.00 in0.0 mm
10:05 PM 30.5°F-0.8°C 27.4°F-2.6°C 88% 2.0 mph ENE3.2 kmh ENE -- 30.47 in1031.8 mb 0.00 in0.0 mm 0.00 in0.0 mm 0.00 in0.0 mm
10:10 PM 30.5°F-0.8°C 27.4°F-2.6°C 88% 1.0 mph E1.6 kmh E -- 30.47 in1031.8 mb 0.00 in0.0 mm 0.00 in0.0 mm 0.00 in0.0 mm
10:15 PM 30.5°F-0.8°C 27.4°F-2.6°C 88% Calm Calm -- 30.46 in1031.5 mb 0.00 in0.0 mm 0.00 in0.0 mm 0.00 in0.0 mm
10:20 PM 30.5°F-0.8°C 27.4°F-2.6°C 88% Calm Calm -- 30.46 in1031.5 mb 0.00 in0.0 mm 0.00 in0.0 mm 0.00 in0.0 mm
10:25 PM 30.5°F-0.8°C 27.4°F-2.6°C 88% Calm Calm -- 30.46 in1031.5 mb 0.00 in0.0 mm 0.00 in0.0 mm 0.00 in0.0 mm
10:30 PM 30.5°F-0.8°C 27.4°F-2.6°C 88% Calm Calm 1.0 mph1.6 kmh 30.45 in1031.2 mb 0.00 in0.0 mm 0.00 in0.0 mm 0.00 in0.0 mm
10:35 PM 30.5°F-0.8°C 27.4°F-2.6°C 88% 5.0 mph E8.0 kmh E 1.0 mph1.6 kmh 30.44 in1030.8 mb 0.00 in0.0 mm 0.00 in0.0 mm 0.00 in0.0 mm
10:40 PM 30.5°F-0.8°C 27.4°F-2.6°C 88% Calm Calm -- 30.44 in1030.8 mb 0.00 in0.0 mm 0.00 in0.0 mm 0.00 in0.0 mm
10:45 PM 30.5°F-0.8°C 27.4°F-2.6°C 88% 2.0 mph E3.2 kmh E -- 30.44 in1030.8 mb 0.00 in0.0 mm 0.00 in0.0 mm 0.00 in0.0 mm
10:50 PM 30.6°F-0.8°C 27.5°F-2.5°C 88% 1.0 mph ESE1.6 kmh ESE -- 30.44 in1030.8 mb 0.00 in0.0 mm 0.00 in0.0 mm 0.00 in0.0 mm
10:55 PM 30.6°F-0.8°C 27.5°F-2.5°C 88% 2.0 mph ENE3.2 kmh ENE -- 30.42 in1030.1 mb 0.00 in0.0 mm 0.00 in0.0 mm 0.00 in0.0 mm
11:00 PM 30.6°F-0.8°C 27.5°F-2.5°C 88% 2.0 mph E3.2 kmh E -- 30.43 in1030.5 mb 0.00 in0.0 mm 0.00 in0.0 mm 0.00 in0.0 mm
11:05 PM 30.6°F-0.8°C 27.5°F-2.5°C 88% Calm Calm -- 30.43 in1030.5 mb 0.00 in0.0 mm 0.00 in0.0 mm 0.00 in0.0 mm
11:10 PM 30.6°F-0.8°C 27.5°F-2.5°C 88% Calm Calm -- 30.42 in1030.1 mb 0.00 in0.0 mm 0.00 in0.0 mm 0.00 in0.0 mm
11:15 PM 30.6°F-0.8°C 27.5°F-2.5°C 88% Calm Calm -- 30.42 in1030.1 mb 0.00 in0.0 mm 0.00 in0.0 mm 0.00 in0.0 mm
11:20 PM 30.6°F-0.8°C 27.5°F-2.5°C 88% Calm Calm -- 30.42 in1030.1 mb 0.00 in0.0 mm 0.00 in0.0 mm 0.00 in0.0 mm
11:25 PM 30.7°F-0.7°C 27.6°F-2.4°C 88% Calm Calm -- 30.41 in1029.8 mb 0.00 in0.0 mm 0.00 in0.0 mm 0.00 in0.0 mm
11:30 PM 30.7°F-0.7°C 27.6°F-2.4°C 88% Calm Calm -- 30.41 in1029.8 mb 0.00 in0.0 mm 0.00 in0.0 mm 0.00 in0.0 mm
11:35 PM 30.7°F-0.7°C 27.6°F-2.4°C 88% Calm Calm -- 30.40 in1029.5 mb 0.00 in0.0 mm 0.00 in0.0 mm 0.00 in0.0 mm
11:40 PM 30.7°F-0.7°C 27.6°F-2.4°C 88% Calm Calm -- 30.39 in1029.1 mb 0.00 in0.0 mm 0.00 in0.0 mm 0.00 in0.0 mm
11:45 PM 30.8°F-0.7°C 27.7°F-2.4°C 88% Calm Calm -- 30.38 in1028.8 mb 0.00 in0.0 mm 0.00 in0.0 mm 0.00 in0.0 mm
11:50 PM 30.7°F-0.7°C 27.6°F-2.4°C 88% Calm Calm -- 30.38 in1028.8 mb 0.00 in0.0 mm 0.00 in0.0 mm 0.00 in0.0 mm
11:55 PM 30.8°F-0.7°C 27.7°F-2.4°C 88% Calm Calm -- 30.38 in1028.8 mb 0.00 in0.0 mm 0.00 in0.0 mm 0.00 in0.0 mm